Time;durP1;ratioP1;P1;durP2;ratioP2;P2;SDS_P1;SDS_P2;PMS_P1;PMS_P2;Temp;Humidity;BMP_temperature;BMP_pressure;BME280_temperature;BME280_humidity;BME280_pressure;Samples;Min_cycle;Max_cycle;Signal;HPM_P1;HPM_P2
2022/05/16 00:02:10;;;;;;;4.57;2.22;;;21.00;99.90;;;;;;5131915;27;20118;-80
2022/05/16 00:04:37;;;;;;;5.65;3.00;;;21.00;99.90;;;;;;5129474;27;20047;-80
2022/05/16 00:07:03;;;;;;;4.43;2.78;;;21.00;99.90;;;;;;5133184;27;20044;-80
2022/05/16 00:09:28;;;;;;;7.45;3.60;;;21.10;99.90;;;;;;5103854;27;20151;-80
2022/05/16 00:11:54;;;;;;;4.65;3.00;;;21.10;99.90;;;;;;5131587;27;20108;-80
2022/05/16 00:14:20;;;;;;;3.60;2.40;;;21.10;99.90;;;;;;5103721;27;20047;-80
2022/05/16 00:16:46;;;;;;;4.47;2.60;;;21.10;99.90;;;;;;5134198;27;20043;-80
2022/05/16 00:19:11;;;;;;;4.43;2.75;;;21.10;99.90;;;;;;5134055;27;20100;-80
2022/05/16 00:21:38;;;;;;;7.65;2.63;;;21.10;99.90;;;;;;5130659;27;20928;-80
2022/05/16 00:24:04;;;;;;;4.05;2.63;;;21.10;99.90;;;;;;5131503;27;20150;-80
2022/05/16 00:26:30;;;;;;;6.40;3.33;;;21.10;99.90;;;;;;5131043;27;20118;-80
2022/05/16 00:28:56;;;;;;;7.75;3.33;;;21.20;99.90;;;;;;5129343;27;20043;-80
2022/05/16 00:31:21;;;;;;;6.40;3.35;;;21.10;99.90;;;;;;5132616;27;20472;-81
2022/05/16 00:33:47;;;;;;;6.55;3.20;;;21.10;99.90;;;;;;5132535;27;20100;-81
2022/05/16 00:36:13;;;;;;;7.68;3.45;;;21.00;99.90;;;;;;5131982;27;20050;-81
2022/05/16 00:38:40;;;;;;;10.07;3.30;;;21.00;99.90;;;;;;5110943;27;20526;-81
2022/05/16 00:41:06;;;;;;;10.45;3.20;;;21.00;99.90;;;;;;5131272;27;20797;-81
2022/05/16 00:43:55;;;;;;;5.47;3.55;;;21.10;99.90;;;;;;5128424;27;20131;-81
2022/05/16 00:46:26;;;;;;;7.32;3.33;;;20.90;99.90;;;;;;5131580;27;20044;-81
2022/05/16 00:48:53;;;;;;;8.07;3.53;;;20.90;99.90;;;;;;5131930;27;20035;-80
2022/05/16 00:51:30;;;;;;;10.63;3.55;;;20.90;99.90;;;;;;5131538;27;20043;-81
2022/05/16 00:54:05;;;;;;;11.38;4.47;;;20.90;99.90;;;;;;5113514;27;20027;-81
2022/05/16 00:56:32;;;;;;;7.32;4.07;;;20.80;99.90;;;;;;5126242;27;20122;-81
2022/05/16 00:58:59;;;;;;;6.93;3.17;;;20.80;99.90;;;;;;5130160;27;20039;-81
2022/05/16 01:06:56;;;;;;;6.70;3.58;;;20.80;99.90;;;;;;5131421;27;20051;-81
2022/05/16 01:09:22;;;;;;;7.72;3.88;;;20.70;99.90;;;;;;5129525;27;20567;-80
2022/05/16 01:11:48;;;;;;;7.60;4.78;;;20.70;99.90;;;;;;5121901;27;20039;-81
2022/05/16 01:14:42;;;;;;;6.80;4.20;;;20.70;99.90;;;;;;5121817;27;20078;-81
2022/05/16 01:17:08;;;;;;;6.43;3.58;;;20.70;99.90;;;;;;5130718;27;20119;-81
2022/05/16 01:19:34;;;;;;;7.05;4.07;;;20.70;99.90;;;;;;5128574;27;20046;-81
2022/05/16 01:22:27;;;;;;;10.25;3.60;;;20.70;99.90;;;;;;5130624;27;20659;-81
2022/05/16 01:24:55;;;;;;;8.82;4.43;;;20.70;99.90;;;;;;5116368;27;20050;-81
2022/05/16 01:27:21;;;;;;;5.43;3.75;;;20.60;99.90;;;;;;5128759;27;20489;-81
2022/05/16 01:29:49;;;;;;;7.40;3.85;;;20.60;99.90;;;;;;5110229;27;20050;-81
2022/05/16 01:32:15;;;;;;;12.20;4.45;;;20.60;99.90;;;;;;5123919;27;20039;-81
2022/05/16 01:34:43;;;;;;;7.63;3.45;;;20.50;99.90;;;;;;5130488;27;20067;-81
2022/05/16 01:37:09;;;;;;;8.60;4.55;;;20.50;99.90;;;;;;5109592;27;20126;-81
2022/05/16 01:39:35;;;;;;;9.27;4.88;;;20.60;99.90;;;;;;5130225;27;20039;-80
2022/05/16 01:42:01;;;;;;;8.90;4.28;;;20.50;99.90;;;;;;5127113;27;20188;-81
2022/05/16 01:44:27;;;;;;;9.60;3.40;;;20.50;99.90;;;;;;5126882;27;20825;-81
2022/05/16 01:46:53;;;;;;;7.78;4.88;;;20.50;99.90;;;;;;5105347;27;20036;-81
2022/05/16 01:49:19;;;;;;;8.63;4.53;;;20.50;99.90;;;;;;5128814;27;20050;-81
2022/05/16 01:51:44;;;;;;;11.05;5.78;;;20.50;99.90;;;;;;5125546;27;20035;-81
2022/05/16 01:54:10;;;;;;;13.05;5.38;;;20.50;99.90;;;;;;5107899;27;20046;-81
2022/05/16 01:56:37;;;;;;;8.35;4.72;;;20.40;99.90;;;;;;5109708;27;20092;-81
2022/05/16 01:59:04;;;;;;;8.38;4.20;;;20.40;99.90;;;;;;5127614;27;20545;-80
2022/05/16 02:01:30;;;;;;;7.70;5.07;;;20.40;99.90;;;;;;5103589;27;20163;-81
2022/05/16 02:03:56;;;;;;;9.98;5.43;;;20.30;99.90;;;;;;5104292;27;20089;-81
2022/05/16 02:06:22;;;;;;;8.50;4.65;;;20.30;99.90;;;;;;5126434;27;20092;-81
2022/05/16 02:08:48;;;;;;;9.10;4.63;;;20.40;99.90;;;;;;5128614;27;20050;-81
2022/05/16 02:11:15;;;;;;;7.25;5.03;;;20.40;99.90;;;;;;5127612;27;20577;-80
2022/05/16 02:13:42;;;;;;;10.10;4.97;;;20.30;99.90;;;;;;5131915;27;20054;-80
2022/05/16 02:16:09;;;;;;;8.40;5.53;;;20.20;99.90;;;;;;5122293;27;20091;-80
2022/05/16 02:18:36;;;;;;;8.77;5.28;;;20.20;99.90;;;;;;5126946;27;20043;-80
2022/05/16 02:26:32;;;;;;;10.57;5.88;;;20.10;99.90;;;;;;5128062;27;20115;-80
2022/05/16 02:28:58;;;;;;;12.98;6.93;;;20.10;99.90;;;;;;5129419;27;20574;-80
2022/05/16 02:31:24;;;;;;;10.48;5.55;;;20.00;99.90;;;;;;5104488;27;20039;-80
2022/05/16 02:33:50;;;;;;;10.32;5.75;;;19.90;99.90;;;;;;5125821;27;20504;-80
2022/05/16 02:36:16;;;;;;;9.55;5.90;;;19.90;99.90;;;;;;5103490;27;20085;-80
2022/05/16 02:38:43;;;;;;;10.52;6.05;;;19.90;99.90;;;;;;5127773;27;20040;-80
2022/05/16 02:41:09;;;;;;;13.73;6.97;;;19.90;99.90;;;;;;5111794;27;20093;-80
2022/05/16 02:43:34;;;;;;;10.77;6.13;;;19.90;99.90;;;;;;5120900;27;20094;-80
2022/05/16 02:46:00;;;;;;;13.70;6.45;;;19.90;99.90;;;;;;5122357;27;21247;-80
2022/05/16 02:48:26;;;;;;;10.32;6.25;;;19.80;99.90;;;;;;5131147;27;20046;-81
2022/05/16 02:50:52;;;;;;;12.93;7.07;;;19.80;99.90;;;;;;5129546;27;20036;-79
2022/05/16 02:53:18;;;;;;;9.77;7.40;;;19.80;99.90;;;;;;5113305;27;20039;-79
2022/05/16 02:55:44;;;;;;;11.82;7.18;;;19.70;99.90;;;;;;5133077;27;20655;-80
2022/05/16 02:58:10;;;;;;;11.00;6.75;;;19.70;99.90;;;;;;5130332;27;20047;-79
2022/05/16 03:00:37;;;;;;;10.40;7.28;;;19.70;99.90;;;;;;5130712;27;20074;-80
2022/05/16 03:03:03;;;;;;;12.35;7.95;;;19.70;99.90;;;;;;5112806;27;20042;-80
2022/05/16 03:05:30;;;;;;;11.63;7.15;;;19.70;99.90;;;;;;5131856;27;20039;-80
2022/05/16 03:07:55;;;;;;;9.07;6.95;;;19.60;99.90;;;;;;5131250;27;20047;-79
2022/05/16 03:10:22;;;;;;;8.18;5.72;;;19.60;99.90;;;;;;5131040;27;20035;-80
2022/05/16 03:12:49;;;;;;;10.45;5.80;;;19.60;99.90;;;;;;5129897;27;20036;-80
2022/05/16 03:15:16;;;;;;;14.32;7.72;;;19.60;99.90;;;;;;5132467;27;20051;-80
2022/05/16 03:17:42;;;;;;;10.20;6.35;;;19.50;99.90;;;;;;5131640;27;20677;-80
2022/05/16 03:20:12;;;;;;;14.05;7.35;;;19.50;99.90;;;;;;5105543;27;20042;-80
2022/05/16 03:22:37;;;;;;;13.85;7.97;;;19.40;99.90;;;;;;5133227;27;20051;-80
2022/05/16 03:25:04;;;;;;;12.57;8.02;;;19.40;99.90;;;;;;5131411;27;20557;-81
2022/05/16 03:27:31;;;;;;;16.15;8.75;;;19.40;99.90;;;;;;5132335;27;20064;-80
2022/05/16 03:29:56;;;;;;;10.40;6.68;;;19.40;99.90;;;;;;5112530;27;20123;-80
2022/05/16 03:32:23;;;;;;;12.70;8.60;;;19.40;99.90;;;;;;5109805;27;20052;-79
2022/05/16 03:34:50;;;;;;;14.95;7.53;;;19.30;99.90;;;;;;5130138;27;20131;-79
2022/05/16 03:37:17;;;;;;;13.65;8.52;;;19.30;99.90;;;;;;5111776;27;20034;-80
2022/05/16 03:42:30;;;;;;;13.05;6.75;;;19.30;99.90;;;;;;5133143;27;20047;-80
2022/05/16 03:44:56;;;;;;;14.88;6.72;;;19.30;99.90;;;;;;5103461;27;20052;-80
2022/05/16 03:47:22;;;;;;;14.75;7.68;;;19.30;99.90;;;;;;5109490;27;20074;-79
2022/05/16 03:49:48;;;;;;;14.40;7.30;;;19.30;99.90;;;;;;5127160;27;20054;-80
2022/05/16 03:52:14;;;;;;;11.07;7.45;;;19.30;99.90;;;;;;5111413;27;20042;-80
2022/05/16 03:54:40;;;;;;;8.40;6.35;;;19.20;99.90;;;;;;5112762;27;20177;-80
2022/05/16 03:57:07;;;;;;;13.90;7.82;;;19.20;99.90;;;;;;5112764;27;20036;-80
2022/05/16 03:59:33;;;;;;;13.18;7.70;;;19.10;99.90;;;;;;5103829;27;20050;-80
2022/05/16 04:01:59;;;;;;;8.57;6.65;;;19.10;99.90;;;;;;5103675;27;20031;-80
2022/05/16 04:04:28;;;;;;;15.02;6.43;;;19.00;99.90;;;;;;5110397;27;20055;-80
2022/05/16 04:06:54;;;;;;;11.13;6.72;;;18.90;99.90;;;;;;5107473;27;20102;-80
2022/05/16 04:09:20;;;;;;;10.35;7.55;;;18.90;99.90;;;;;;5113598;27;20043;-81
2022/05/16 04:11:46;;;;;;;9.85;7.00;;;18.90;99.90;;;;;;5113328;27;20066;-80
2022/05/16 04:14:12;;;;;;;12.35;5.75;;;18.90;99.90;;;;;;5113771;27;20043;-80
2022/05/16 04:16:38;;;;;;;9.75;6.30;;;18.90;99.90;;;;;;5106268;27;20334;-80
2022/05/16 04:19:07;;;;;;;10.45;7.22;;;18.80;99.90;;;;;;5102865;27;20388;-81
2022/05/16 04:21:35;;;;;;;7.55;5.80;;;18.80;99.90;;;;;;5107354;27;20066;-81
2022/05/16 04:24:01;;;;;;;14.52;7.60;;;18.80;99.90;;;;;;5109716;27;20510;-80
2022/05/16 04:26:27;;;;;;;12.48;5.82;;;18.80;99.90;;;;;;5111283;27;20032;-80
2022/05/16 04:28:54;;;;;;;11.60;6.70;;;18.80;99.90;;;;;;5109543;27;20050;-81
2022/05/16 04:31:19;;;;;;;9.35;5.72;;;18.70;99.90;;;;;;5110069;27;20067;-81
2022/05/16 04:33:45;;;;;;;10.02;5.88;;;18.70;99.90;;;;;;5112536;27;20040;-80
2022/05/16 04:36:11;;;;;;;14.48;6.80;;;18.70;99.90;;;;;;5109880;27;20510;-80
2022/05/16 04:38:36;;;;;;;14.70;6.97;;;18.70;99.90;;;;;;5114174;27;20508;-79
2022/05/16 04:43:47;;;;;;;20.08;6.80;;;18.70;99.90;;;;;;5116267;27;20055;-77
2022/05/16 04:46:13;;;;;;;10.88;6.63;;;18.70;99.90;;;;;;5124085;27;20039;-79
2022/05/16 04:48:39;;;;;;;11.57;6.57;;;18.70;99.90;;;;;;5115288;27;20524;-79
2022/05/16 04:51:05;;;;;;;12.07;6.03;;;18.70;99.90;;;;;;5130130;27;20039;-79
2022/05/16 04:53:31;;;;;;;13.93;6.65;;;18.70;99.90;;;;;;5132235;27;20070;-81
2022/05/16 04:55:57;;;;;;;12.40;6.57;;;18.70;99.90;;;;;;5110393;27;20035;-78
2022/05/16 04:58:23;;;;;;;14.52;6.55;;;18.80;99.90;;;;;;5108344;27;20042;-79
2022/05/16 05:00:49;;;;;;;12.43;7.43;;;18.80;99.90;;;;;;5130341;27;20491;-79
2022/05/16 05:03:15;;;;;;;12.55;6.20;;;18.80;99.90;;;;;;5110905;27;20035;-79
2022/05/16 05:05:41;;;;;;;12.20;7.50;;;18.90;99.90;;;;;;5102099;27;21022;-79
2022/05/16 05:08:06;;;;;;;11.65;6.15;;;18.90;99.90;;;;;;5102521;27;20046;-85
2022/05/16 05:16:14;;;;;;;11.23;5.70;;;19.00;99.90;;;;;;5130063;27;20062;-78
2022/05/16 05:18:41;;;;;;;12.50;5.45;;;19.20;99.90;;;;;;5113160;27;20096;-78
2022/05/16 05:21:07;;;;;;;9.85;5.57;;;19.20;99.90;;;;;;5134837;27;20050;-78
2022/05/16 05:23:34;;;;;;;10.20;6.63;;;19.30;99.90;;;;;;5132745;27;20043;-78
2022/05/16 05:26:01;;;;;;;10.63;5.22;;;19.30;99.90;;;;;;5132013;27;20043;-78
2022/05/16 05:28:27;;;;;;;7.88;4.70;;;19.40;99.90;;;;;;5134406;27;20039;-78
2022/05/16 05:30:53;;;;;;;8.27;5.40;;;19.40;99.90;;;;;;5136516;27;20043;-77
2022/05/16 05:33:18;;;;;;;7.47;4.50;;;19.40;99.90;;;;;;5133231;27;20394;-79
2022/05/16 05:35:44;;;;;;;11.32;5.28;;;19.40;99.90;;;;;;5131970;27;20122;-78
2022/05/16 05:38:10;;;;;;;7.10;4.47;;;19.40;99.90;;;;;;5133599;27;20615;-79
2022/05/16 05:40:40;;;;;;;11.88;5.85;;;19.40;99.90;;;;;;5132952;27;20139;-79
2022/05/16 05:43:07;;;;;;;10.45;5.22;;;19.40;99.90;;;;;;5116241;27;20070;-79
2022/05/16 05:45:39;;;;;;;10.43;4.95;;;19.40;99.90;;;;;;5131018;27;20582;-83
2022/05/16 05:48:05;;;;;;;;;;;19.40;99.90;;;;;;5112894;27;20051;-80
2022/05/16 05:50:31;;;;;;;9.07;5.00;;;19.40;99.90;;;;;;5107744;27;20008;-79
2022/05/16 05:52:58;;;;;;;9.77;4.78;;;19.40;99.90;;;;;;5113745;27;20429;-80
2022/05/16 05:55:28;;;;;;;8.02;3.97;;;19.20;99.90;;;;;;5112373;27;20046;-80
2022/05/16 05:58:00;;;;;;;11.77;5.32;;;19.30;99.90;;;;;;5088534;27;20551;-80
2022/05/16 06:00:29;;;;;;;11.13;4.43;;;19.30;99.90;;;;;;5125877;27;20035;-79
2022/05/16 06:02:55;;;;;;;8.07;4.22;;;19.30;99.90;;;;;;5131186;27;20039;-79
2022/05/16 06:05:23;;;;;;;7.25;4.43;;;19.30;99.90;;;;;;5112940;27;20039;-80
2022/05/16 06:07:57;;;;;;;10.35;4.93;;;19.30;99.90;;;;;;5133025;27;20118;-80
2022/05/16 06:10:23;;;;;;;9.10;4.70;;;19.20;99.90;;;;;;5134779;27;20114;-80
2022/05/16 06:12:49;;;;;;;7.47;4.30;;;19.30;99.90;;;;;;5132117;27;20043;-80
2022/05/16 06:15:15;;;;;;;8.18;4.22;;;19.30;99.90;;;;;;5130563;27;20410;-80
2022/05/16 06:17:43;;;;;;;7.10;4.05;;;19.30;99.90;;;;;;5112059;27;20130;-80
2022/05/16 06:20:10;;;;;;;7.97;3.97;;;19.30;99.90;;;;;;5122876;27;20150;-80
2022/05/16 06:22:38;;;;;;;13.10;4.45;;;19.30;99.90;;;;;;5112113;27;20074;-80
2022/05/16 06:27:54;;;;;;;5.60;3.80;;;19.50;99.90;;;;;;5131879;27;20074;-79
2022/05/16 06:30:23;;;;;;;9.57;3.97;;;19.30;99.90;;;;;;5132573;27;20036;-80
2022/05/16 06:32:49;;;;;;;9.48;4.25;;;19.00;99.90;;;;;;5135003;27;20100;-79
2022/05/16 06:35:24;;;;;;;8.23;4.30;;;19.40;99.90;;;;;;5114133;27;20043;-80
2022/05/16 06:37:59;;;;;;;12.18;4.22;;;19.70;99.90;;;;;;5133471;27;22779;-81
2022/05/16 06:40:28;;;;;;;9.25;3.55;;;19.40;99.90;;;;;;5103987;27;20052;-81
2022/05/16 06:43:05;;;;;;;9.20;3.67;;;19.50;99.90;;;;;;5134836;27;20047;-82
2022/05/16 06:45:33;;;;;;;13.35;5.13;;;19.50;99.90;;;;;;5127858;27;20108;-81
2022/05/16 06:48:04;;;;;;;7.55;3.72;;;19.60;99.90;;;;;;5139082;27;20050;-81
2022/05/16 06:50:57;;;;;;;6.35;3.13;;;19.60;99.90;;;;;;5119936;27;20240;-81
2022/05/16 06:53:36;;;;;;;5.90;2.83;;;19.70;99.90;;;;;;5114916;27;20051;-81
2022/05/16 06:56:05;;;;;;;6.72;2.90;;;19.60;99.90;;;;;;5119260;27;21263;-81
2022/05/16 06:58:31;;;;;;;9.27;3.85;;;19.70;99.90;;;;;;5120268;27;20134;-81
2022/05/16 07:01:03;;;;;;;5.20;3.33;;;19.70;99.90;;;;;;5119904;27;20071;-82
2022/05/16 07:03:42;;;;;;;4.82;2.47;;;19.50;99.90;;;;;;5118855;27;20051;-82
2022/05/16 07:06:14;;;;;;;6.63;2.80;;;19.20;99.90;;;;;;5119168;27;20053;-81
2022/05/16 07:08:46;;;;;;;5.03;2.97;;;19.60;99.90;;;;;;5119634;27;20055;-81
2022/05/16 07:11:19;;;;;;;;;;;19.70;99.90;;;;;;5130216;27;20050;-81
2022/05/16 07:13:59;;;;;;;7.97;2.78;;;20.00;99.90;;;;;;5120447;27;19923;-82
2022/05/16 07:16:35;;;;;;;6.70;3.10;;;19.80;99.90;;;;;;5123059;27;20051;-82
2022/05/16 07:19:19;;;;;;;4.95;2.22;;;19.80;99.90;;;;;;5123826;27;20047;-81
2022/05/16 07:21:56;;;;;;;10.93;3.72;;;19.90;99.90;;;;;;5137462;27;20123;-82
2022/05/16 07:24:43;;;;;;;4.97;2.47;;;19.90;99.90;;;;;;5128546;27;20043;-82
2022/05/16 07:30:06;;;;;;;9.93;4.32;;;20.00;99.90;;;;;;5142920;27;20062;-82
2022/05/16 07:32:43;;;;;;;8.68;3.65;;;20.00;99.90;;;;;;5116657;27;20039;-82
2022/05/16 07:35:21;;;;;;;5.20;2.70;;;20.00;99.90;;;;;;5122125;27;20059;-82
2022/05/16 07:38:05;;;;;;;10.98;4.18;;;20.00;99.90;;;;;;5119927;27;20507;-81
2022/05/16 07:40:40;;;;;;;6.57;2.67;;;19.90;99.90;;;;;;5130345;27;20156;-82
2022/05/16 07:43:12;;;;;;;4.57;2.03;;;19.90;99.90;;;;;;5119402;27;20039;-82
2022/05/16 07:45:38;;;;;;;6.88;2.60;;;19.80;99.90;;;;;;5129490;27;20051;-82
2022/05/16 07:48:12;;;;;;;7.10;2.92;;;19.60;99.90;;;;;;5120865;27;20039;-81
2022/05/16 07:50:44;;;;;;;6.20;3.83;;;19.60;99.90;;;;;;5129086;27;20555;-82
2022/05/16 07:53:13;;;;;;;7.88;3.33;;;19.50;99.90;;;;;;5119001;27;20042;-81
2022/05/16 07:55:41;;;;;;;7.05;3.40;;;19.50;99.90;;;;;;5136824;27;20050;-82
2022/05/16 07:58:15;;;;;;;8.75;2.95;;;19.40;99.90;;;;;;5111615;27;20075;-82
2022/05/16 08:00:54;;;;;;;8.85;3.35;;;19.40;99.90;;;;;;5127111;27;20070;-82
2022/05/16 08:03:25;;;;;;;9.00;3.50;;;19.40;99.90;;;;;;5118386;27;20084;-81
2022/05/16 08:05:54;;;;;;;8.10;3.45;;;19.30;99.90;;;;;;5136709;27;20046;-82
2022/05/16 08:14:13;;;;;;;6.65;2.47;;;19.40;99.90;;;;;;5137689;27;20134;-82
2022/05/16 08:16:48;;;;;;;6.15;3.10;;;19.40;99.90;;;;;;5134191;27;20063;-80
2022/05/16 08:33:11;;;;;;;6.53;2.70;;;19.50;99.90;;;;;;6049125;22;5317075;-82
2022/05/16 08:39:52;;;;;;;5.55;2.05;;;19.50;99.90;;;;;;6280166;22;20637;-82
2022/05/16 08:41:50;;;;;;;5.68;2.78;;;19.80;99.90;;;;;;6279972;22;20016;-83
2022/05/16 08:45:10;;;;;;;6.43;1.83;;;20.10;99.90;;;;;;6250357;22;20557;-82
2022/05/16 08:47:59;;;;;;;5.38;2.55;;;20.40;99.90;;;;;;6204237;22;20008;-82
2022/05/16 08:50:47;;;;;;;4.57;2.63;;;20.50;99.90;;;;;;6251236;22;20940;-82
2022/05/16 08:53:31;;;;;;;5.88;2.55;;;20.20;99.90;;;;;;6251151;22;20103;-82
2022/05/16 08:56:08;;;;;;;4.68;2.63;;;20.10;99.90;;;;;;6251041;22;20468;-83
2022/05/16 08:58:58;;;;;;;4.60;2.25;;;20.10;99.90;;;;;;6250559;22;20011;-82
2022/05/16 09:01:58;;;;;;;4.90;2.70;;;19.90;99.90;;;;;;6250519;22;20019;-82
2022/05/16 09:04:47;;;;;;;6.55;3.20;;;20.20;99.90;;;;;;6247545;22;20095;-83
2022/05/16 09:07:46;;;;;;;2.72;1.60;;;20.00;99.90;;;;;;6251176;22;20016;-82
2022/05/16 09:10:15;;;;;;;4.93;2.03;;;19.70;99.90;;;;;;6250814;22;20081;-82
2022/05/16 09:13:06;;;;;;;7.63;1.98;;;20.00;99.90;;;;;;6249099;22;20023;-82
2022/05/16 09:15:44;;;;;;;4.65;2.45;;;20.00;99.90;;;;;;6250140;22;20016;-83
2022/05/16 09:18:38;;;;;;;6.68;1.70;;;20.00;99.90;;;;;;6250711;22;20105;-83
2022/05/16 09:21:28;;;;;;;2.05;1.52;;;20.10;99.90;;;;;;6247158;22;20598;-82
2022/05/16 09:24:45;;;;;;;2.10;1.35;;;20.10;99.90;;;;;;6251161;22;20020;-83
2022/05/16 09:30:15;;;;;;;1.55;1.05;;;20.10;99.90;;;;;;6253593;22;20012;-83
2022/05/16 09:33:12;;;;;;;6.78;1.60;;;20.10;99.90;;;;;;6246080;22;20488;-82
2022/05/16 09:36:13;;;;;;;2.33;1.38;;;20.20;99.90;;;;;;6228570;22;20211;-83
2022/05/16 09:39:19;;;;;;;4.18;1.40;;;20.20;99.90;;;;;;6242813;22;20082;-85
2022/05/16 09:42:08;;;;;;;6.40;2.58;;;20.10;99.90;;;;;;6243569;22;20020;-84
2022/05/16 09:45:02;;;;;;;;;;;;;;;;;;;;;
2022/05/16 09:48:16;;;;;;;3.90;1.65;;;20.30;99.90;;;;;;6145456;23;39086;-83
2022/05/16 09:51:24;;;;;;;5.40;2.10;;;20.40;99.90;;;;;;6240756;22;20023;-85
2022/05/16 09:54:22;;;;;;;7.97;1.70;;;20.50;99.90;;;;;;6241858;22;20533;-86
2022/05/16 10:01:16;;;;;;;;;;;;;;;;;;;;;
2022/05/16 10:04:15;;;;;;;;;;;;;;;;;;;;;
2022/05/16 10:06:58;;;;;;;3.47;1.50;;;20.40;99.90;;;;;;6169394;23;42384;-82
2022/05/16 10:10:12;;;;;;;4.53;1.23;;;20.60;99.90;;;;;;6206881;23;20859;-83
2022/05/16 10:12:50;;;;;;;6.63;1.55;;;20.60;99.90;;;;;;6144892;23;20339;-83
2022/05/16 10:15:31;;;;;;;3.92;1.38;;;20.70;99.90;;;;;;6205552;23;20017;-82
2022/05/16 10:18:13;;;;;;;5.13;1.52;;;20.70;99.90;;;;;;6207660;23;20061;-83
2022/05/16 10:20:45;;;;;;;;;;;20.90;99.90;;;;;;6218690;22;20012;-83
2022/05/16 10:23:52;;;;;;;1.52;1.08;;;21.00;99.90;;;;;;6244610;22;19911;-83
2022/05/16 10:27:05;;;;;;;4.55;1.30;;;20.90;99.90;;;;;;6244638;22;20058;-82
2022/05/16 10:36:08;;;;;;;1.50;1.13;;;20.90;99.90;;;;;;6272744;22;20013;-83
2022/05/16 10:38:42;;;;;;;4.43;1.38;;;20.90;99.90;;;;;;6243855;22;20016;-83
2022/05/16 10:44:52;;;;;;;6.15;1.77;;;20.80;99.90;;;;;;6244745;22;20023;-82
2022/05/16 10:47:42;;;;;;;3.28;1.20;;;20.90;99.90;;;;;;6243411;22;20259;-83
2022/05/16 10:53:52;;;;;;;5.95;1.30;;;20.90;99.90;;;;;;6250918;22;20012;-84
2022/05/16 10:56:50;;;;;;;2.60;1.10;;;20.90;99.90;;;;;;6243052;22;21032;-83
2022/05/16 11:02:59;;;;;;;2.70;1.10;;;21.00;99.90;;;;;;6161829;22;20022;-83
2022/05/16 11:06:06;;;;;;;2.63;1.88;;;21.00;99.90;;;;;;6243094;22;20020;-83
2022/05/16 11:12:20;;;;;;;2.47;1.23;;;21.10;99.90;;;;;;6270153;22;20009;-83
2022/05/16 11:15:26;;;;;;;3.60;1.85;;;21.20;99.90;;;;;;6244220;22;20023;-83
2022/05/16 11:18:28;;;;;;;2.83;1.40;;;21.20;99.90;;;;;;6243588;22;20683;-83
2022/05/16 11:21:21;;;;;;;3.08;1.30;;;21.20;99.90;;;;;;6161241;22;20022;-83
2022/05/16 11:24:05;;;;;;;2.97;1.20;;;21.20;99.90;;;;;;6242645;22;20022;-83
2022/05/16 11:27:03;;;;;;;3.92;1.40;;;21.30;99.90;;;;;;6243189;22;20020;-83
2022/05/16 11:30:20;;;;;;;;;;;;;;;;;;;;;
2022/05/16 11:33:30;;;;;;;3.33;1.10;;;21.30;99.90;;;;;;6270297;22;41346;-83
2022/05/16 11:36:17;;;;;;;2.55;1.10;;;21.40;99.90;;;;;;6272172;22;20019;-83
2022/05/16 11:39:19;;;;;;;2.38;1.33;;;21.40;99.90;;;;;;6242932;22;20102;-82
2022/05/16 11:42:12;;;;;;;;;;;21.50;99.90;;;;;;6240732;22;20016;-83
2022/05/16 11:45:15;;;;;;;1.90;1.00;;;21.70;99.90;;;;;;6271173;22;19919;-82
2022/05/16 11:48:25;;;;;;;2.17;1.45;;;21.70;99.90;;;;;;6271352;22;20469;-83
2022/05/16 11:51:20;;;;;;;;;;;;;;;;;;;;;
2022/05/16 11:54:13;;;;;;;;;;;;;;;;;;;;;
2022/05/16 12:00:38;;;;;;;1.55;0.85;;;22.10;99.90;;;;;;6271732;22;20420;-82
2022/05/16 12:03:54;;;;;;;4.03;1.20;;;22.20;99.90;;;;;;6241020;22;20469;-83
2022/05/16 12:07:02;;;;;;;1.60;0.90;;;22.40;99.90;;;;;;6118859;23;20010;-82
2022/05/16 12:09:54;;;;;;;1.90;0.98;;;22.40;99.90;;;;;;6145830;23;20018;-82
2022/05/16 12:13:23;;;;;;;;;;;;;;;;;;;;;
2022/05/16 12:16:42;;;;;;;2.83;1.02;;;22.40;99.90;;;;;;6269138;22;43457;-83
2022/05/16 12:19:51;;;;;;;3.15;1.50;;;22.50;99.90;;;;;;6191344;22;20012;-83
2022/05/16 12:22:43;;;;;;;4.28;1.30;;;22.70;99.90;;;;;;6240303;22;20020;-83
2022/05/16 12:25:43;;;;;;;1.85;1.00;;;22.80;99.90;;;;;;6242965;22;20456;-83
2022/05/16 12:28:41;;;;;;;2.78;0.80;;;22.80;99.90;;;;;;6241639;22;20100;-82
2022/05/16 12:31:48;;;;;;;;;;;;;;;;;;;;;
2022/05/16 12:34:57;;;;;;;2.88;1.05;;;22.70;99.00;;;;;;6258824;22;43113;-83
2022/05/16 12:37:38;;;;;;;1.90;1.00;;;22.70;98.90;;;;;;6243580;22;20115;-82
2022/05/16 12:40:52;;;;;;;;;;;;;;;;;;;;;
2022/05/16 12:44:08;;;;;;;;;;;;;;;;;;;;;
2022/05/16 12:47:10;;;;;;;3.38;1.20;;;22.60;98.50;;;;;;6269254;22;40814;-82
2022/05/16 12:50:37;;;;;;;;;;;;;;;;;;;;;
2022/05/16 12:53:51;;;;;;;3.70;1.17;;;22.60;98.20;;;;;;6268210;22;44180;-83
2022/05/16 12:56:47;;;;;;;3.20;1.60;;;22.60;98.00;;;;;;6239952;22;20013;-83
2022/05/16 12:59:51;;;;;;;2.42;1.35;;;22.60;97.90;;;;;;6243536;22;20068;-83
2022/05/16 13:03:05;;;;;;;1.55;0.80;;;22.60;97.60;;;;;;6243588;22;20063;-83
2022/05/16 13:06:37;;;;;;;3.80;1.73;;;22.90;97.50;;;;;;6245218;22;20016;-83
2022/05/16 13:09:40;;;;;;;2.35;1.00;;;22.70;97.10;;;;;;6123638;23;20006;-82
2022/05/16 13:12:59;;;;;;;4.28;1.00;;;22.70;97.10;;;;;;6245738;22;20468;-83
2022/05/16 13:16:19;;;;;;;2.42;1.17;;;22.70;96.90;;;;;;6243980;22;20012;-83
2022/05/16 13:19:11;;;;;;;5.10;1.65;;;22.70;96.80;;;;;;6244420;22;20012;-82
2022/05/16 13:22:04;;;;;;;1.45;0.85;;;22.80;96.70;;;;;;6231686;22;20023;-82
2022/05/16 13:24:50;;;;;;;2.50;0.80;;;22.80;96.50;;;;;;6243969;22;20032;-83
2022/05/16 13:35:55;;;;;;;1.77;1.13;;;22.80;95.60;;;;;;4374722;27;21026952;-83
2022/05/16 13:38:44;;;;;;;2.17;0.80;;;23.00;95.20;;;;;;5064477;27;20168;-83
2022/05/16 13:41:25;;;;;;;1.92;1.10;;;22.70;94.90;;;;;;5102714;27;20036;-83
2022/05/16 13:44:45;;;;;;;5.93;1.83;;;22.60;94.90;;;;;;5101548;27;20071;-83
2022/05/16 13:50:43;;;;;;;2.00;0.95;;;22.70;95.00;;;;;;5098351;27;21217;-83
2022/05/16 13:53:38;;;;;;;1.23;0.88;;;22.80;94.80;;;;;;5108779;27;20055;-83
2022/05/16 13:56:32;;;;;;;1.70;0.90;;;22.90;94.60;;;;;;5101461;27;20548;-83
2022/05/16 13:59:21;;;;;;;1.55;0.90;;;22.90;94.60;;;;;;5078081;28;20142;-83
2022/05/16 14:02:32;;;;;;;3.90;0.88;;;22.90;94.60;;;;;;5062346;28;20047;-83
2022/05/16 14:05:38;;;;;;;2.10;0.60;;;22.90;94.40;;;;;;5061307;28;20077;-83
2022/05/16 14:08:26;;;;;;;3.10;1.15;;;23.00;93.90;;;;;;5053565;28;20052;-83
2022/05/16 14:10:58;;;;;;;1.92;0.90;;;23.10;93.70;;;;;;5045989;28;20447;-83
2022/05/16 14:13:29;;;;;;;3.42;1.10;;;23.10;93.60;;;;;;5062293;28;20052;-83
2022/05/16 14:16:06;;;;;;;2.13;0.90;;;23.20;93.50;;;;;;5078683;28;20055;-83
2022/05/16 14:18:48;;;;;;;2.10;0.85;;;23.20;93.40;;;;;;5078876;28;20281;-83
2022/05/16 14:21:16;;;;;;;;;;;23.30;93.40;;;;;;5079646;28;20079;-83
2022/05/16 14:24:02;;;;;;;1.25;0.63;;;23.40;93.10;;;;;;5079148;28;20062;-83
2022/05/16 14:26:48;;;;;;;2.15;0.98;;;23.40;92.90;;;;;;5071232;28;20045;-83
2022/05/16 14:29:19;;;;;;;1.33;1.13;;;23.40;92.80;;;;;;5084696;27;20145;-83
2022/05/16 14:32:07;;;;;;;3.92;1.77;;;23.50;92.70;;;;;;5110111;27;20045;-83
2022/05/16 14:34:42;;;;;;;2.92;1.10;;;23.60;92.40;;;;;;5126068;27;20085;-83
2022/05/16 14:37:15;;;;;;;3.78;1.60;;;23.70;92.30;;;;;;5107270;27;20038;-83
2022/05/16 14:40:09;;;;;;;3.88;1.30;;;23.60;92.10;;;;;;5108494;27;20050;-82
2022/05/16 14:42:40;;;;;;;1.38;0.77;;;23.70;92.10;;;;;;5134554;27;20056;-83
2022/05/16 14:45:14;;;;;;;3.13;1.17;;;23.70;92.00;;;;;;5122414;27;20040;-82
2022/05/16 14:47:43;;;;;;;1.02;0.68;;;23.70;91.90;;;;;;5117407;27;20209;-83
2022/05/16 14:50:19;;;;;;;3.10;1.00;;;23.70;91.80;;;;;;5099322;27;20120;-83
2022/05/16 14:53:35;;;;;;;2.47;0.90;;;23.70;91.60;;;;;;5098741;27;20494;-83
2022/05/16 14:56:55;;;;;;;;;;;;;;;;;;;;;
2022/05/16 15:10:52;;;;;;;;;;;;;;;;;;;;;
2022/05/16 15:14:09;;;;;;;1.48;0.88;;;23.80;90.90;;;;;;4886185;29;42883;-83
2022/05/16 15:17:18;;;;;;;4.47;0.82;;;24.00;90.90;;;;;;4848083;29;20083;-83
2022/05/16 15:24:29;;;;;;;2.00;0.60;;;23.90;90.60;;;;;;4872158;29;20452;-84
2022/05/16 15:35:10;;;;;;;1.33;0.77;;;24.10;90.60;;;;;;4816405;29;20376;-83
2022/05/16 15:37:36;;;;;;;3.13;1.50;;;24.10;90.30;;;;;;4815816;29;20069;-82
2022/05/16 15:40:09;;;;;;;2.55;1.02;;;24.10;90.30;;;;;;4911959;28;20063;-83
2022/05/16 15:42:35;;;;;;;1.88;0.55;;;24.20;90.30;;;;;;5044906;28;20060;-82
2022/05/16 15:45:07;;;;;;;1.60;0.93;;;24.30;90.20;;;;;;5044037;28;20633;-83
2022/05/16 15:47:36;;;;;;;;;;;24.50;89.80;;;;;;5043743;28;20558;-82
2022/05/16 15:50:05;;;;;;;5.78;1.00;;;24.70;89.30;;;;;;5044795;28;19931;-83
2022/05/16 15:52:31;;;;;;;4.25;1.10;;;24.70;89.50;;;;;;5043320;28;20057;-83
2022/05/16 15:54:57;;;;;;;2.30;0.98;;;24.70;89.30;;;;;;5026983;28;20068;-83
2022/05/16 15:57:23;;;;;;;2.83;1.38;;;24.90;88.80;;;;;;5027751;27;20074;-82